Time;durP1;ratioP1;P1;durP2;ratioP2;P2;SDS_P1;SDS_P2;PMS_P1;PMS_P2;Temp;Humidity;BMP_temperature;BMP_pressure;BME280_temperature;BME280_humidity;BME280_pressure;Samples;Min_cycle;Max_cycle;Signal;HPM_P1;HPM_P2
2020/12/13 00:00:13;;;;;;;19.42;11.98;;;4.80;82.50;;;3.93;66.77;93890.72;5018135;28;20212;-81
2020/12/13 00:02:42;;;;;;;20.45;12.25;;;4.80;82.50;;;3.92;66.97;93889.09;5017942;28;20191;-82
2020/12/13 00:05:08;;;;;;;19.92;12.10;;;4.80;82.50;;;3.92;66.84;93892.50;5034637;28;20595;-82
2020/12/13 00:07:35;;;;;;;18.92;11.57;;;4.80;82.50;;;3.91;67.20;93893.50;5018280;28;20619;-82
2020/12/13 00:10:02;;;;;;;20.38;12.18;;;4.80;82.50;;;3.92;66.72;93891.69;5034852;28;20310;-81
2020/12/13 00:12:30;;;;;;;21.55;12.85;;;4.80;82.50;;;3.90;66.63;93889.28;5051473;28;20192;-82
2020/12/13 00:14:57;;;;;;;20.65;12.80;;;4.80;82.50;;;3.90;66.87;93894.47;5050960;28;20712;-81
2020/12/13 00:17:25;;;;;;;21.92;13.35;;;4.80;82.50;;;3.91;66.70;93898.69;5018368;28;20319;-82
2020/12/13 00:19:52;;;;;;;20.42;11.80;;;4.80;82.50;;;3.85;66.83;93889.00;5034978;28;20207;-81
2020/12/13 00:22:19;;;;;;;20.67;13.05;;;4.80;82.50;;;3.88;66.88;93893.03;5031302;28;20204;-82
2020/12/13 00:24:46;;;;;;;19.67;12.32;;;4.80;82.50;;;3.91;66.92;93897.88;5030850;28;20247;-82
2020/12/13 00:27:13;;;;;;;22.88;13.57;;;4.80;82.50;;;3.89;66.62;93900.63;5031134;28;20674;-82
2020/12/13 00:29:41;;;;;;;22.27;12.98;;;4.80;82.50;;;3.89;66.70;93905.03;5014689;28;20694;-81
2020/12/13 00:32:08;;;;;;;22.63;13.07;;;4.80;82.40;;;3.85;66.43;93900.19;5031198;28;20208;-82
2020/12/13 00:34:35;;;;;;;21.65;13.38;;;4.70;82.40;;;3.88;66.76;93908.59;5034411;28;20222;-81
2020/12/13 00:37:02;;;;;;;26.50;13.63;;;4.80;82.40;;;3.87;66.87;93902.63;5050681;28;20224;-81
2020/12/13 00:39:29;;;;;;;21.42;13.18;;;4.80;82.40;;;3.88;67.05;93903.41;5050025;28;20273;-82
2020/12/13 00:41:57;;;;;;;20.05;12.50;;;4.80;82.40;;;3.87;66.48;93913.00;5014976;28;20205;-82
2020/12/13 00:44:23;;;;;;;21.58;13.30;;;4.90;82.50;;;3.87;66.72;93923.38;5031250;28;20553;-82
2020/12/13 00:46:51;;;;;;;20.70;12.70;;;4.80;82.40;;;3.87;66.96;93918.19;5048865;28;20230;-82
2020/12/13 00:49:18;;;;;;;23.02;13.23;;;4.80;82.40;;;3.85;66.59;93912.34;5018015;28;20216;-81
2020/12/13 00:51:45;;;;;;;22.83;13.75;;;4.70;82.40;;;3.85;66.87;93933.09;5034503;28;20230;-82
2020/12/13 00:54:12;;;;;;;23.50;13.38;;;4.70;82.40;;;3.86;66.79;93937.31;5018049;28;20251;-82
2020/12/13 00:56:45;;;;;;;21.20;13.63;;;4.70;82.40;;;3.85;66.60;93933.09;5018246;28;20227;-81
2020/12/13 00:59:15;;;;;;;22.88;13.40;;;4.70;82.40;;;3.84;66.64;93934.06;5020188;28;20655;-82
2020/12/13 01:01:42;;;;;;;21.90;13.50;;;4.70;82.30;;;3.83;66.54;93937.66;5037555;28;20574;-82
2020/12/13 01:04:09;;;;;;;24.17;14.02;;;4.70;82.40;;;3.84;66.81;93944.47;5036983;28;20658;-81
2020/12/13 01:06:36;;;;;;;22.88;13.88;;;4.70;82.30;;;3.78;66.75;93938.16;5038251;28;20689;-82
2020/12/13 01:09:04;;;;;;;26.05;15.68;;;4.70;82.30;;;3.78;66.60;93943.34;5054432;28;20245;-81
2020/12/13 01:11:33;;;;;;;25.85;14.48;;;4.70;82.20;;;3.75;66.48;93945.47;5038246;28;20610;-82
2020/12/13 01:14:01;;;;;;;24.85;13.98;;;4.70;82.20;;;3.75;66.75;93955.84;5037621;28;20273;-82
2020/12/13 01:16:28;;;;;;;22.92;13.05;;;4.70;82.20;;;3.71;66.52;93947.66;5037523;28;20219;-81
2020/12/13 01:18:57;;;;;;;21.70;13.88;;;4.70;82.20;;;3.72;66.65;93951.03;5037575;28;20251;-82
2020/12/13 01:21:27;;;;;;;23.25;13.88;;;4.70;82.20;;;3.74;66.50;93954.28;5054435;28;20709;-81
2020/12/13 01:23:55;;;;;;;22.65;13.43;;;4.60;82.10;;;3.73;66.65;93955.25;5038016;28;20223;-82
2020/12/13 01:26:25;;;;;;;23.42;13.73;;;4.70;82.20;;;3.71;66.38;93960.63;5037457;28;20234;-82
2020/12/13 01:28:52;;;;;;;22.40;13.43;;;4.70;82.10;;;3.69;66.70;93955.59;5037353;28;20228;-82
2020/12/13 01:31:21;;;;;;;21.70;12.73;;;4.60;82.00;;;3.66;66.39;93965.50;5053988;28;20650;-81
2020/12/13 01:33:50;;;;;;;22.75;13.80;;;4.60;82.00;;;3.62;66.53;93959.84;5053834;28;20270;-82
2020/12/13 01:36:21;;;;;;;21.50;12.70;;;4.60;82.00;;;3.58;66.52;93960.38;5037405;28;20765;-82
2020/12/13 01:38:49;;;;;;;20.15;12.10;;;4.60;82.00;;;3.51;66.63;93950.66;5037249;28;20219;-81
2020/12/13 01:41:17;;;;;;;21.85;12.40;;;4.50;81.90;;;3.50;66.46;93962.03;5037380;28;20231;-82
2020/12/13 01:44:02;;;;;;;20.00;12.40;;;4.60;82.00;;;3.46;66.40;93968.53;5020871;28;20204;-81
2020/12/13 01:46:31;;;;;;;21.48;13.25;;;4.50;82.70;;;3.41;66.81;93972.63;5036966;28;20187;-82
2020/12/13 01:49:03;;;;;;;22.13;13.55;;;4.40;81.80;;;3.39;66.46;93974.59;5037026;28;20739;-82
2020/12/13 01:51:52;;;;;;;21.20;13.05;;;4.40;81.80;;;3.33;66.47;93970.88;5033686;28;20208;-82
2020/12/13 01:54:20;;;;;;;23.05;14.00;;;4.40;81.80;;;3.22;66.30;93971.28;5033712;28;20204;-82
2020/12/13 01:56:52;;;;;;;23.23;13.70;;;4.40;81.80;;;3.21;65.97;93980.84;5051978;28;20218;-82
2020/12/13 01:59:21;;;;;;;22.17;12.50;;;4.30;81.70;;;3.16;65.83;93980.50;5020677;28;20226;-82
2020/12/13 02:01:55;;;;;;;18.92;11.63;;;4.30;81.60;;;3.09;66.34;93977.81;5020309;28;20196;-82
2020/12/13 02:04:23;;;;;;;20.10;12.70;;;4.20;81.50;;;3.01;65.95;93977.84;5036541;28;20228;-82
2020/12/13 02:06:53;;;;;;;22.35;13.25;;;4.20;81.50;;;2.93;66.06;93977.84;5020670;28;20675;-82
2020/12/13 02:09:24;;;;;;;22.58;13.55;;;4.10;81.30;;;2.84;66.04;93971.91;5033551;28;20259;-82
2020/12/13 02:11:52;;;;;;;22.90;13.50;;;4.00;81.30;;;2.74;66.02;93974.69;5033416;28;20200;-82
2020/12/13 02:14:20;;;;;;;21.17;12.13;;;4.00;81.20;;;2.68;66.12;93977.94;5033129;28;20216;-82
2020/12/13 02:16:48;;;;;;;21.38;13.32;;;3.90;81.20;;;2.59;66.63;93978.94;5016597;28;20220;-82
2020/12/13 02:19:16;;;;;;;21.70;12.40;;;3.80;81.20;;;2.53;66.29;93975.25;5033215;28;20220;-82
2020/12/13 02:21:49;;;;;;;21.52;12.38;;;3.70;81.20;;;2.45;66.11;93978.63;5025342;28;20201;-82
2020/12/13 02:24:18;;;;;;;24.25;12.25;;;3.70;81.20;;;2.36;66.32;93975.25;5025938;28;20223;-82
2020/12/13 02:26:47;;;;;;;20.33;12.27;;;3.60;81.20;;;2.30;66.07;93970.75;5036194;28;20188;-82
2020/12/13 02:29:15;;;;;;;18.50;11.23;;;3.50;81.20;;;2.21;66.14;93969.97;5052693;28;20258;-82
2020/12/13 02:31:42;;;;;;;18.65;10.85;;;3.50;81.20;;;2.16;66.12;93974.81;5052788;28;20237;-82
2020/12/13 02:34:09;;;;;;;21.40;12.27;;;3.40;81.20;;;2.06;66.28;93977.56;5052369;28;20297;-82
2020/12/13 02:36:36;;;;;;;23.17;11.20;;;3.30;81.10;;;2.02;66.23;93981.44;5052966;28;20219;-81
2020/12/13 02:39:06;;;;;;;21.08;11.45;;;3.30;81.10;;;1.96;66.40;93989.06;5036264;28;20219;-82
2020/12/13 02:41:33;;;;;;;21.10;10.93;;;3.30;81.20;;;1.86;66.49;93986.63;5036256;28;20204;-82
2020/12/13 02:44:00;;;;;;;20.33;11.32;;;3.20;81.20;;;1.74;66.64;93978.38;5052609;28;20303;-82
2020/12/13 02:46:26;;;;;;;18.98;11.32;;;3.20;81.20;;;1.75;66.60;93988.53;5035486;28;20204;-82
2020/12/13 02:48:54;;;;;;;21.08;11.27;;;3.00;81.20;;;1.69;66.48;93986.59;5019867;28;20215;-82
2020/12/13 02:51:21;;;;;;;20.15;11.40;;;3.00;81.20;;;1.64;66.47;93983.69;5035499;28;20199;-82
2020/12/13 02:53:47;;;;;;;21.70;11.52;;;3.00;81.30;;;1.56;66.40;93981.09;5035616;28;20675;-81
2020/12/13 02:56:14;;;;;;;19.30;11.35;;;2.90;81.20;;;1.49;66.36;93988.69;5019398;28;20302;-81
2020/12/13 02:58:41;;;;;;;22.17;12.07;;;2.80;81.20;;;1.43;66.51;93987.53;5017305;28;20200;-81
2020/12/13 03:01:10;;;;;;;23.25;12.10;;;2.80;81.30;;;1.40;66.82;93987.03;5019307;28;20257;-82
2020/12/13 03:03:37;;;;;;;19.27;10.77;;;2.70;81.30;;;1.39;66.43;93999.16;5026598;28;20251;-81
2020/12/13 03:06:04;;;;;;;19.40;11.27;;;2.70;81.40;;;1.28;66.57;93984.75;5016036;28;20565;-82
2020/12/13 03:08:31;;;;;;;20.45;11.13;;;2.60;81.30;;;1.30;66.82;93999.31;5015950;28;20193;-82
2020/12/13 03:10:57;;;;;;;24.30;12.80;;;2.60;81.40;;;1.25;66.66;93986.84;5015795;28;20609;-81
2020/12/13 03:13:25;;;;;;;21.45;11.45;;;2.50;81.40;;;1.22;66.71;93998.31;5015940;28;20193;-80
2020/12/13 03:15:52;;;;;;;22.05;11.95;;;2.50;81.40;;;1.19;66.84;94001.19;5051897;28;20192;-82
2020/12/13 03:18:19;;;;;;;22.30;11.98;;;2.50;81.40;;;1.14;66.71;94000.06;5018994;28;20204;-82
2020/12/13 03:20:46;;;;;;;22.13;11.63;;;2.40;81.40;;;1.11;66.70;94003.75;5033138;28;20628;-81
2020/12/13 03:23:13;;;;;;;22.50;12.27;;;2.40;81.40;;;1.06;66.78;94003.41;5049421;28;20204;-82
2020/12/13 03:25:39;;;;;;;20.83;11.98;;;2.30;81.40;;;1.02;66.87;94008.06;5049998;28;20219;-82
2020/12/13 03:28:06;;;;;;;21.10;11.95;;;2.30;81.50;;;1.00;66.88;94009.19;5052398;28;20246;-82
2020/12/13 03:30:33;;;;;;;20.27;12.20;;;2.30;81.60;;;0.97;66.91;94009.53;5050581;28;20212;-82
2020/12/13 03:32:59;;;;;;;21.42;11.45;;;2.20;81.50;;;0.95;66.80;94009.66;5037467;28;20200;-82
2020/12/13 03:35:26;;;;;;;20.58;11.07;;;2.20;81.60;;;0.92;66.79;94004.81;5034554;28;20244;-82
2020/12/13 03:37:53;;;;;;;21.30;11.00;;;2.20;81.60;;;0.91;66.81;94019.47;5034258;28;20215;-81
2020/12/13 03:40:20;;;;;;;22.60;12.70;;;2.20;81.70;;;0.87;66.37;94015.59;5017593;28;20358;-81
2020/12/13 03:42:47;;;;;;;26.42;13.32;;;2.20;81.70;;;0.85;67.06;94019.31;5048344;28;20196;-81
2020/12/13 03:45:13;;;;;;;22.00;12.27;;;2.10;81.70;;;0.82;66.82;94011.84;5017894;28;20270;-82
2020/12/13 03:47:40;;;;;;;23.15;12.63;;;2.00;81.60;;;0.81;66.82;94018.81;5030954;28;20334;-82
2020/12/13 03:50:08;;;;;;;19.85;11.25;;;2.10;81.70;;;0.78;66.92;94019.91;5067996;28;20216;-81
2020/12/13 03:52:35;;;;;;;20.55;11.45;;;2.00;81.60;;;0.76;66.88;94018.47;5050523;28;20196;-81
2020/12/13 03:55:02;;;;;;;20.38;11.68;;;2.00;82.40;;;0.75;66.90;94022.78;5018964;28;20284;-81
2020/12/13 03:57:29;;;;;;;22.75;11.57;;;2.00;81.70;;;0.66;66.58;94015.16;5016973;28;20265;-81
2020/12/13 03:59:56;;;;;;;24.75;12.57;;;1.90;81.60;;;0.69;66.61;94020.84;5048913;28;20216;-82
2020/12/13 04:02:22;;;;;;;21.83;11.52;;;1.90;81.60;;;0.66;66.49;94022.91;5061374;28;20231;-81
2020/12/13 04:04:49;;;;;;;20.60;11.40;;;1.90;81.60;;;0.60;67.27;94019.97;5044015;28;20224;-81
2020/12/13 04:07:16;;;;;;;20.25;11.63;;;1.90;81.70;;;0.61;66.84;94020.78;5033903;28;20214;-81
2020/12/13 04:09:43;;;;;;;22.48;11.70;;;1.80;81.60;;;0.60;66.93;94026.94;5050149;28;20262;-81
2020/12/13 04:12:10;;;;;;;23.25;12.07;;;1.80;81.70;;;0.58;66.90;94028.84;5047949;28;20205;-81
2020/12/13 04:14:37;;;;;;;21.42;12.38;;;1.80;81.80;;;0.57;67.06;94027.22;5053872;28;20306;-82
2020/12/13 04:17:04;;;;;;;21.98;11.93;;;1.80;81.80;;;0.57;67.00;94022.84;5038720;28;20797;-81
2020/12/13 04:19:31;;;;;;;21.02;12.55;;;1.80;81.90;;;0.57;67.21;94022.06;5032478;28;20219;-82
2020/12/13 04:21:58;;;;;;;19.05;11.23;;;1.80;81.90;;;0.56;66.86;94034.16;5032701;28;20544;-82
2020/12/13 04:24:25;;;;;;;21.20;11.55;;;1.70;81.80;;;0.54;67.25;94033.50;5048876;28;20698;-80
2020/12/13 04:26:51;;;;;;;19.30;11.30;;;1.70;81.90;;;0.51;66.75;94038.94;5049308;28;20275;-82
2020/12/13 04:29:18;;;;;;;20.38;11.20;;;1.70;81.90;;;0.52;66.96;94037.97;5032498;28;20775;-82
2020/12/13 04:31:45;;;;;;;22.35;11.90;;;1.70;82.80;;;0.50;67.07;94034.78;5048791;28;20200;-81
2020/12/13 04:34:16;;;;;;;20.63;11.43;;;1.70;82.00;;;0.47;67.11;94038.44;5036800;28;20234;-81
2020/12/13 04:36:43;;;;;;;17.38;10.77;;;1.70;82.00;;;0.47;67.12;94042.81;5054842;28;20242;-81
2020/12/13 04:39:10;;;;;;;23.63;12.05;;;1.70;82.00;;;0.46;66.91;94051.50;5054777;28;20250;-82
2020/12/13 04:41:37;;;;;;;19.73;11.60;;;1.70;82.00;;;0.47;67.20;94053.91;5038239;28;20299;-82
2020/12/13 04:44:04;;;;;;;23.15;12.23;;;1.60;82.00;;;0.47;67.29;94055.69;5038092;28;20216;-81
2020/12/13 04:46:31;;;;;;;20.05;11.43;;;1.60;82.10;;;0.51;67.43;94049.25;5021922;28;20192;-81
2020/12/13 04:48:58;;;;;;;21.65;12.15;;;1.60;82.20;;;0.53;67.45;94057.66;5037996;28;20235;-81
2020/12/13 04:51:27;;;;;;;20.85;11.88;;;1.60;83.10;;;0.57;67.74;94053.81;5038062;28;20200;-82
2020/12/13 04:54:06;;;;;;;19.90;11.02;;;1.70;82.60;;;0.67;67.74;94055.50;5038050;28;20224;-81
2020/12/13 04:56:36;;;;;;;19.30;10.88;;;1.70;82.80;;;0.75;67.92;94060.72;5054574;28;20242;-81
2020/12/13 04:59:05;;;;;;;19.45;11.32;;;1.80;82.90;;;0.84;67.83;94064.16;5054728;28;20681;-81
2020/12/13 05:01:32;;;;;;;20.10;11.25;;;1.80;83.00;;;0.91;67.85;94071.13;5053857;28;20210;-81
2020/12/13 05:03:59;;;;;;;24.45;11.98;;;1.80;83.00;;;1.00;67.91;94066.81;5037971;28;20224;-81
2020/12/13 05:06:29;;;;;;;21.27;11.57;;;1.90;83.10;;;1.04;67.85;94055.22;5071328;28;20231;-81
2020/12/13 05:08:56;;;;;;;36.90;12.80;;;1.90;83.30;;;1.16;67.85;94065.25;5037968;28;20333;-81
2020/12/13 05:11:24;;;;;;;58.83;13.05;;;2.00;83.30;;;1.23;67.90;94061.09;5053901;28;20196;-81
2020/12/13 05:13:51;;;;;;;67.88;13.52;;;2.00;83.40;;;1.32;67.52;94067.94;5021262;28;20227;-81
2020/12/13 05:16:17;;;;;;;77.45;13.32;;;2.10;83.50;;;1.39;67.85;94070.69;5020756;28;20199;-81
2020/12/13 05:18:44;;;;;;;51.85;13.25;;;2.20;83.50;;;1.45;67.81;94075.22;5037483;28;20200;-81
2020/12/13 05:21:11;;;;;;;67.80;13.02;;;2.30;83.60;;;1.43;67.77;94064.25;5053986;28;20575;-81
2020/12/13 05:23:38;;;;;;;66.50;13.55;;;2.30;83.50;;;1.58;67.54;94078.16;5036196;28;20227;-81
2020/12/13 05:26:05;;;;;;;70.38;14.23;;;2.40;83.60;;;1.64;67.32;94076.75;5032735;28;20211;-82
2020/12/13 05:28:33;;;;;;;109.07;13.10;;;2.40;83.50;;;1.69;67.56;94084.81;5035363;28;20203;-81
2020/12/13 05:31:01;;;;;;;64.80;13.38;;;2.50;83.50;;;1.73;67.72;94086.16;5035907;28;20188;-82
2020/12/13 05:33:37;;;;;;;81.30;13.90;;;2.60;83.50;;;1.73;67.38;94086.16;5036940;28;20227;-81
2020/12/13 05:36:06;;;;;;;65.97;13.38;;;2.60;83.40;;;1.82;67.14;94093.91;5038734;28;20218;-81
2020/12/13 05:38:35;;;;;;;78.75;12.68;;;2.70;83.50;;;1.84;67.50;94095.34;5052314;28;20746;-81
2020/12/13 05:41:05;;;;;;;93.70;13.95;;;2.70;83.50;;;1.87;67.63;94094.25;5033164;28;20227;-82
2020/12/13 05:43:37;;;;;;;66.32;12.93;;;2.70;83.40;;;1.90;67.53;94099.94;5033605;28;20206;-81
2020/12/13 05:51:36;;;;;;;74.97;13.10;;;2.80;83.30;;;1.90;67.43;94112.03;5047858;28;20201;-81
2020/12/13 05:54:10;;;;;;;58.17;12.32;;;2.80;83.20;;;1.95;67.28;94108.97;5031783;28;20274;-81
2020/12/13 05:56:38;;;;;;;51.55;12.23;;;2.90;83.30;;;1.95;67.56;94109.78;5050824;28;20712;-81
2020/12/13 05:59:06;;;;;;;102.38;14.27;;;2.90;83.20;;;1.97;67.11;94110.44;5051137;28;20707;-81
2020/12/13 06:01:36;;;;;;;76.10;13.38;;;2.90;83.20;;;1.99;67.29;94111.09;5034373;28;20261;-81
2020/12/13 06:04:13;;;;;;;46.78;12.52;;;2.90;83.20;;;2.00;67.55;94122.22;5034417;28;20224;-81
2020/12/13 06:06:45;;;;;;;60.30;12.27;;;2.90;83.30;;;2.03;67.53;94124.50;5020512;28;20298;-80
2020/12/13 06:09:15;;;;;;;53.67;13.15;;;3.00;83.40;;;2.06;67.55;94126.78;5036226;28;20239;-81
2020/12/13 06:11:43;;;;;;;44.25;13.88;;;2.90;83.30;;;2.08;67.47;94127.44;5019557;28;20207;-81
2020/12/13 06:14:19;;;;;;;93.35;22.67;;;3.00;83.30;;;2.12;67.84;94125.34;5052970;28;20310;-81
2020/12/13 06:16:48;;;;;;;73.97;19.27;;;3.00;84.10;;;2.13;67.70;94134.72;5035521;28;20211;-81
2020/12/13 06:19:22;;;;;;;91.22;26.27;;;3.00;83.30;;;2.15;67.34;94132.75;5052304;28;20220;-82
2020/12/13 06:21:51;;;;;;;120.63;28.55;;;3.10;83.40;;;2.14;67.60;94138.94;5036294;28;20196;-81
2020/12/13 06:24:18;;;;;;;77.43;22.67;;;3.10;83.30;;;2.19;67.36;94141.84;5034813;28;20220;-79
2020/12/13 06:26:45;;;;;;;83.50;18.55;;;3.10;83.40;;;2.21;67.76;94145.06;5016408;28;20207;-82
2020/12/13 06:29:11;;;;;;;57.70;16.38;;;3.10;83.30;;;2.22;67.63;94144.91;5020525;28;20223;-81
2020/12/13 06:31:40;;;;;;;53.05;15.77;;;3.10;83.30;;;2.27;67.37;94144.44;5048967;28;20193;-82
2020/12/13 06:34:08;;;;;;;49.00;14.15;;;3.20;83.40;;;2.29;67.71;94147.66;5017301;28;20252;-82
2020/12/13 06:36:37;;;;;;;42.25;14.50;;;3.20;83.40;;;2.30;67.56;94151.88;5051976;28;20212;-82
2020/12/13 06:39:12;;;;;;;37.00;12.27;;;3.20;83.40;;;2.31;67.17;94150.91;5052031;28;20596;-82
2020/12/13 06:41:45;;;;;;;47.78;13.18;;;3.20;83.40;;;2.33;67.57;94161.09;5018824;28;20210;-82
2020/12/13 06:44:13;;;;;;;40.05;12.43;;;3.20;83.40;;;2.36;67.50;94160.78;5035923;28;20227;-82
2020/12/13 06:46:43;;;;;;;35.83;12.80;;;3.30;83.40;;;2.36;67.61;94165.97;5035301;28;20226;-81
2020/12/13 06:49:14;;;;;;;42.33;12.45;;;3.30;83.40;;;2.39;67.66;94163.03;5035245;28;20232;-82
2020/12/13 06:51:44;;;;;;;44.03;12.48;;;3.30;83.30;;;2.40;67.56;94164.66;5052365;28;20238;-81
2020/12/13 06:54:17;;;;;;;45.40;12.60;;;3.30;83.30;;;2.42;67.74;94165.31;5052409;28;20675;-82
2020/12/13 06:56:47;;;;;;;38.83;12.05;;;3.30;83.30;;;2.43;67.51;94168.72;5019945;28;20226;-81
2020/12/13 06:59:18;;;;;;;42.17;11.95;;;3.30;83.30;;;2.45;67.68;94179.72;5019235;28;20756;-81
2020/12/13 07:01:46;;;;;;;29.95;11.23;;;3.30;83.20;;;2.46;67.63;94169.19;5019112;28;20291;-81
2020/12/13 07:04:39;;;;;;;41.10;11.13;;;3.40;83.30;;;2.48;67.57;94177.63;5050428;28;20223;-81
2020/12/13 07:07:16;;;;;;;62.17;14.32;;;3.30;83.30;;;2.50;67.36;94174.88;5032383;28;20658;-81
2020/12/13 07:09:43;;;;;;;58.38;16.42;;;3.40;83.40;;;2.49;67.63;94181.84;5034497;28;20609;-81
2020/12/13 07:12:11;;;;;;;69.00;18.60;;;3.40;83.30;;;2.54;67.40;94186.53;5033850;28;20684;-81
2020/12/13 07:14:40;;;;;;;54.92;15.93;;;3.40;83.30;;;2.54;67.48;94197.69;5033814;28;21275;-82
2020/12/13 07:17:16;;;;;;;39.45;13.88;;;3.40;83.40;;;2.57;67.58;94191.38;5034544;28;20259;-82
2020/12/13 07:19:48;;;;;;;45.42;12.80;;;3.50;83.50;;;2.59;67.66;94188.63;5020218;28;20223;-82
2020/12/13 07:22:16;;;;;;;39.55;13.35;;;3.50;83.40;;;2.61;67.57;94207.41;5050484;28;20203;-82
2020/12/13 07:24:44;;;;;;;38.42;12.55;;;3.50;83.40;;;2.64;67.48;94201.91;5035227;28;20220;-80
2020/12/13 07:27:11;;;;;;;34.95;12.85;;;3.50;83.40;;;2.66;67.49;94205.13;5034388;28;20290;-82
2020/12/13 07:29:38;;;;;;;29.70;12.38;;;3.50;83.50;;;2.67;67.43;94204.16;5035299;28;20227;-82
2020/12/13 07:32:06;;;;;;;26.20;12.65;;;3.50;83.40;;;2.67;67.72;94206.75;5035299;28;20235;-83
2020/12/13 07:34:34;;;;;;;22.88;12.07;;;3.60;83.50;;;2.67;67.39;94207.59;5035254;28;20590;-82
2020/12/13 07:37:01;;;;;;;21.63;12.43;;;3.60;83.40;;;2.67;67.39;94209.34;5024841;28;20248;-82
2020/12/13 07:39:29;;;;;;;24.02;11.23;;;3.60;83.40;;;2.71;67.52;94223.56;5042044;28;20220;-82
2020/12/13 07:41:57;;;;;;;32.92;12.38;;;3.60;83.40;;;2.73;67.57;94213.88;5040461;28;20197;-82
2020/12/13 07:44:30;;;;;;;29.23;13.90;;;3.60;83.40;;;2.73;67.70;94224.25;5010177;28;20213;-82
2020/12/13 07:46:57;;;;;;;34.10;12.57;;;3.60;83.40;;;2.76;67.57;94220.50;5025714;28;20192;-83
2020/12/13 07:49:25;;;;;;;40.42;13.95;;;3.60;83.50;;;2.77;67.69;94216.97;5024101;28;20266;-82
2020/12/13 07:51:54;;;;;;;26.35;12.52;;;3.70;83.50;;;2.80;67.53;94221.84;5025188;28;20200;-82
2020/12/13 07:54:32;;;;;;;26.38;12.18;;;3.70;83.50;;;2.83;67.53;94231.84;5031631;28;20303;-82
2020/12/13 07:57:12;;;;;;;24.65;11.85;;;3.70;83.50;;;2.85;67.50;94229.91;5033248;28;20223;-83
2020/12/13 07:59:39;;;;;;;34.22;13.50;;;3.70;83.50;;;2.87;67.61;94241.72;5025712;28;20216;-83
2020/12/13 08:02:08;;;;;;;46.60;14.77;;;3.70;83.50;;;2.90;67.30;94240.59;5023971;28;20192;-82
2020/12/13 08:04:43;;;;;;;36.17;14.23;;;3.70;83.50;;;2.89;67.58;94241.56;5027799;28;20238;-82
2020/12/13 08:07:11;;;;;;;38.60;12.98;;;3.80;83.50;;;2.93;67.87;94245.47;4999023;28;20614;-82
2020/12/13 08:09:43;;;;;;;25.98;11.73;;;3.80;83.50;;;2.98;67.76;94244.97;5047100;28;20303;-82
2020/12/13 08:12:13;;;;;;;25.13;12.32;;;3.80;83.60;;;3.00;67.83;94241.28;5015633;28;20196;-82
2020/12/13 08:14:40;;;;;;;25.20;12.55;;;3.80;83.60;;;3.07;68.05;94258.75;5031471;28;20312;-82
2020/12/13 08:17:07;;;;;;;29.92;12.27;;;3.80;83.70;;;3.11;67.88;94254.84;5047862;28;20255;-82
2020/12/13 08:19:42;;;;;;;29.27;12.57;;;3.90;83.80;;;3.17;67.68;94256.81;5031277;28;20231;-82
2020/12/13 08:22:25;;;;;;;28.15;12.73;;;3.90;83.80;;;3.19;67.70;94254.88;5033844;28;20662;-82
2020/12/13 08:24:58;;;;;;;24.33;12.43;;;4.00;83.80;;;3.24;67.69;94252.59;5017932;28;20246;-82
2020/12/13 08:27:32;;;;;;;23.33;11.88;;;4.00;83.80;;;3.25;67.72;94253.38;5047091;28;20501;-82
2020/12/13 08:30:00;;;;;;;28.63;12.57;;;4.00;83.80;;;3.32;67.95;94264.72;5031230;28;20224;-82
2020/12/13 08:32:36;;;;;;;24.40;12.65;;;4.10;83.80;;;3.34;67.91;94260.19;5015105;28;20575;-82
2020/12/13 08:35:14;;;;;;;23.30;12.02;;;4.10;83.80;;;3.42;67.68;94269.72;5014601;28;20697;-82
2020/12/13 08:37:59;;;;;;;20.80;12.23;;;4.20;83.90;;;3.44;67.84;94271.22;5047738;28;20228;-82
2020/12/13 08:40:44;;;;;;;21.50;12.25;;;4.30;83.90;;;3.48;67.71;94274.28;5022811;28;20701;-82
2020/12/13 08:43:17;;;;;;;20.52;11.88;;;4.30;83.90;;;3.48;67.90;94267.31;5034507;28;20211;-82
2020/12/13 08:45:54;;;;;;;22.23;12.60;;;4.30;83.90;;;3.56;67.83;94268.28;5030144;28;20694;-81
2020/12/13 08:48:27;;;;;;;20.98;11.88;;;4.40;83.90;;;3.62;68.00;94283.97;5047659;28;20208;-82
2020/12/13 08:51:11;;;;;;;22.52;12.15;;;4.40;83.90;;;3.66;67.66;94284.47;5030932;28;20239;-81
2020/12/13 08:53:38;;;;;;;20.88;11.65;;;4.40;83.90;;;3.67;68.18;94278.31;5031181;28;20204;-82
2020/12/13 08:56:13;;;;;;;20.85;11.82;;;4.40;83.90;;;3.73;67.61;94288.00;5014266;28;20201;-82
2020/12/13 08:58:57;;;;;;;21.10;11.98;;;4.50;83.90;;;3.76;67.91;94284.28;5047841;28;20299;-82
2020/12/13 09:01:40;;;;;;;22.85;12.02;;;4.50;83.80;;;3.80;67.83;94291.56;5017686;28;20200;-82
2020/12/13 09:04:18;;;;;;;22.60;13.13;;;4.60;83.90;;;3.83;67.77;94290.44;5034384;28;20234;-81
2020/12/13 09:06:58;;;;;;;20.63;11.68;;;4.60;83.80;;;3.86;67.71;94297.88;5034148;28;20654;-82
2020/12/13 09:09:31;;;;;;;19.05;11.95;;;4.70;83.90;;;3.84;67.93;94298.06;5033541;28;20691;-82
2020/12/13 09:11:59;;;;;;;21.38;11.57;;;4.70;83.90;;;3.92;67.99;94305.00;5033926;28;20343;-82
2020/12/13 09:14:32;;;;;;;20.17;11.85;;;4.70;83.90;;;3.95;68.02;94309.06;5034064;28;20266;-82
2020/12/13 09:17:00;;;;;;;21.83;11.90;;;4.70;83.90;;;3.97;68.09;94310.50;5034494;28;20635;-83
2020/12/13 09:19:28;;;;;;;17.75;11.05;;;4.70;83.90;;;4.02;67.71;94307.41;5034013;28;20216;-82
2020/12/13 09:22:01;;;;;;;20.42;12.50;;;4.80;84.00;;;4.05;68.01;94308.88;5021100;28;20211;-82
2020/12/13 09:24:32;;;;;;;21.23;12.43;;;4.80;83.90;;;4.10;68.02;94311.75;5037619;28;20231;-82
2020/12/13 09:27:00;;;;;;;22.10;12.38;;;4.90;84.00;;;4.15;68.16;94312.06;5021279;28;20204;-81
2020/12/13 09:29:28;;;;;;;20.85;11.88;;;4.90;84.10;;;4.15;68.25;94293.91;5036589;28;20685;-83
2020/12/13 09:31:55;;;;;;;18.83;11.63;;;4.90;84.10;;;4.26;67.98;94308.31;5021231;28;20208;-82
2020/12/13 09:34:23;;;;;;;18.67;11.82;;;5.10;84.30;;;4.31;68.00;94300.84;5037606;28;20289;-82
2020/12/13 09:36:51;;;;;;;21.63;12.73;;;5.00;84.20;;;4.38;67.84;94309.59;5037417;28;20220;-82
2020/12/13 09:39:31;;;;;;;22.02;12.40;;;5.10;84.30;;;4.43;67.73;94309.88;5040057;28;20216;-81
2020/12/13 09:41:59;;;;;;;21.75;13.10;;;5.10;84.30;;;4.48;67.85;94315.38;5020720;28;20231;-82
2020/12/13 09:44:26;;;;;;;21.25;12.88;;;5.10;84.30;;;4.52;67.83;94312.41;5036943;28;20246;-81
2020/12/13 09:46:58;;;;;;;21.08;13.15;;;5.20;84.40;;;4.52;68.08;94302.88;5036420;28;20211;-81
2020/12/13 09:49:27;;;;;;;20.98;12.13;;;5.30;84.30;;;4.60;67.88;94318.41;5053186;28;20690;-83
2020/12/13 09:52:04;;;;;;;19.52;12.15;;;5.30;84.40;;;4.66;67.95;94311.72;5037121;28;20196;-81
2020/12/13 09:54:31;;;;;;;19.35;12.10;;;5.30;84.30;;;4.73;68.06;94315.25;5053548;28;20223;-82
2020/12/13 09:56:58;;;;;;;18.88;11.40;;;5.40;84.50;;;4.81;67.96;94319.63;5036373;28;20224;-81
2020/12/13 09:59:26;;;;;;;18.77;11.73;;;5.40;84.40;;;4.89;67.83;94324.75;5036779;28;20277;-81
2020/12/13 10:01:53;;;;;;;19.33;11.57;;;5.50;84.60;;;4.96;68.00;94325.69;5037138;28;20199;-81
2020/12/13 10:04:22;;;;;;;18.42;12.23;;;5.60;84.60;;;5.02;68.03;94328.59;5036720;28;20639;-81
2020/12/13 10:07:13;;;;;;;20.42;12.27;;;5.70;84.60;;;5.08;67.77;94328.69;5036694;28;20196;-81
2020/12/13 10:09:38;;;;;;;18.17;11.93;;;5.70;84.40;;;5.16;68.17;94324.44;5053126;28;20262;-81
2020/12/13 10:12:05;;;;;;;22.85;12.10;;;5.70;84.50;;;5.25;67.82;94329.41;5035996;28;20232;-81
2020/12/13 10:14:32;;;;;;;20.15;12.98;;;5.80;84.70;;;5.34;67.87;94332.75;5036978;28;20257;-81
2020/12/13 10:17:00;;;;;;;20.40;12.00;;;5.90;84.80;;;5.44;68.11;94322.13;5036208;28;20223;-81
2020/12/13 10:19:27;;;;;;;20.20;12.55;;;5.90;84.90;;;5.57;68.16;94326.75;5053168;28;20227;-81
2020/12/13 10:21:54;;;;;;;21.10;13.10;;;6.00;85.00;;;5.68;68.29;94323.72;5053018;28;20206;-81
2020/12/13 10:24:22;;;;;;;19.45;12.43;;;6.10;85.10;;;5.81;68.08;94325.72;5036403;28;20223;-82
2020/12/13 10:26:49;;;;;;;21.50;11.80;;;6.20;85.30;;;5.94;68.50;94325.09;5019757;28;20203;-81
2020/12/13 10:29:15;;;;;;;19.65;11.73;;;6.30;85.30;;;6.06;68.13;94328.91;5050756;28;20243;-81
2020/12/13 10:31:46;;;;;;;19.70;11.98;;;6.40;85.20;;;6.15;68.21;94326.22;5051276;28;20287;-81
2020/12/13 10:34:17;;;;;;;19.58;11.63;;;6.60;85.20;;;6.23;68.06;94339.16;5035157;28;20235;-81